Time;durP1;ratioP1;P1;durP2;ratioP2;P2;SDS_P1;SDS_P2;PMS_P1;PMS_P2;Temp;Humidity;BMP_temperature;BMP_pressure;BME280_temperature;BME280_humidity;BME280_pressure;Samples;Min_cycle;Max_cycle;Signal;HPM_P1;HPM_P2
2022/04/04 00:01:07;;;;;;;0.65;0.38;;;;;;;23.37;52.20;99801.81;5014677;28;20072;-65
2022/04/04 00:03:33;;;;;;;0.32;0.20;;;;;;;23.41;52.75;99791.19;5014056;28;20026;-65
2022/04/04 00:05:58;;;;;;;0.40;0.30;;;;;;;23.44;52.22;99788.00;5014650;28;20034;-64
2022/04/04 00:08:23;;;;;;;1.60;0.20;;;;;;;23.45;52.39;99778.69;5014349;28;20018;-65
2022/04/04 00:10:49;;;;;;;0.63;0.30;;;;;;;23.47;52.16;99782.03;5013308;28;20034;-64
2022/04/04 00:13:14;;;;;;;0.88;0.20;;;;;;;23.53;52.24;99781.13;5014352;28;20136;-64
2022/04/04 00:15:41;;;;;;;1.55;0.10;;;;;;;23.52;51.46;99767.66;5014417;28;20049;-64
2022/04/04 00:18:08;;;;;;;0.85;0.15;;;;;;;23.54;51.49;99763.59;5014599;28;20033;-64
2022/04/04 00:20:34;;;;;;;0.17;0.10;;;;;;;23.54;51.70;99755.38;5014213;28;20160;-64
2022/04/04 00:23:00;;;;;;;0.10;0.10;;;;;;;23.57;50.81;99745.88;5014244;28;20025;-64
2022/04/04 00:25:25;;;;;;;0.30;0.10;;;;;;;23.60;49.82;99754.47;5014149;28;20597;-65
2022/04/04 00:27:50;;;;;;;1.25;0.40;;;;;;;23.59;50.17;99747.31;5014136;28;20401;-64
2022/04/04 00:30:17;;;;;;;0.10;0.10;;;;;;;23.60;49.44;99743.50;5014221;28;20021;-65
2022/04/04 00:32:43;;;;;;;2.38;0.20;;;;;;;23.61;50.28;99739.69;5014091;28;20025;-65
2022/04/04 00:35:09;;;;;;;0.77;0.20;;;;;;;23.65;50.18;99737.31;5014019;28;20101;-64
2022/04/04 00:37:34;;;;;;;0.60;0.35;;;;;;;23.65;49.79;99729.91;5013886;28;20022;-64
2022/04/04 00:40:00;;;;;;;0.30;0.10;;;;;;;23.66;49.78;99731.59;5013968;28;20030;-64
2022/04/04 00:42:25;;;;;;;0.85;0.17;;;;;;;23.69;49.38;99730.31;5013755;28;20036;-64
2022/04/04 00:44:51;;;;;;;0.80;0.30;;;;;;;23.66;50.23;99728.84;5013860;28;20022;-64
2022/04/04 00:47:17;;;;;;;0.32;0.10;;;;;;;23.69;48.57;99725.66;5012436;28;20062;-64
2022/04/04 00:49:42;;;;;;;0.55;0.30;;;;;;;23.73;49.41;99715.03;5013780;28;20030;-65
2022/04/04 00:52:08;;;;;;;0.90;0.10;;;;;;;23.71;50.51;99711.69;5013737;28;20072;-64
2022/04/04 00:54:33;;;;;;;0.38;0.10;;;;;;;23.73;49.52;99708.72;5013493;28;20025;-65
2022/04/04 00:57:01;;;;;;;1.08;0.32;;;;;;;23.72;49.48;99701.56;5013755;28;20029;-64
2022/04/04 00:59:27;;;;;;;0.57;0.20;;;;;;;23.74;49.93;99699.41;5013720;28;20034;-65
2022/04/04 01:01:53;;;;;;;0.40;0.30;;;;;;;23.76;49.50;99695.38;5012284;28;20022;-64
2022/04/04 01:04:18;;;;;;;0.10;0.10;;;;;;;23.78;49.19;99689.63;5013178;28;20042;-64
2022/04/04 01:06:44;;;;;;;0.20;0.20;;;;;;;23.76;49.43;99691.78;5012283;28;20453;-64
2022/04/04 01:09:14;;;;;;;0.30;0.10;;;;;;;23.78;49.50;99681.41;5013442;28;20029;-65
2022/04/04 01:12:15;;;;;;;0.88;0.10;;;;;;;23.77;49.72;99677.00;5013430;28;20397;-64
2022/04/04 01:14:47;;;;;;;0.75;0.30;;;;;;;23.75;49.79;99669.00;4932807;29;20071;-65
2022/04/04 01:17:16;;;;;;;0.60;0.30;;;;;;;23.81;49.16;99673.53;4933383;29;20047;-65
2022/04/04 01:19:42;;;;;;;0.70;0.30;;;;;;;23.81;48.61;99650.75;4933437;29;20083;-65
2022/04/04 01:22:10;;;;;;;0.28;0.25;;;;;;;23.82;49.22;99650.50;4933346;29;20476;-65
2022/04/04 01:24:37;;;;;;;1.05;0.30;;;;;;;23.83;48.59;99648.59;4933164;29;20054;-65
2022/04/04 01:27:02;;;;;;;0.63;0.10;;;;;;;23.83;49.07;99648.59;4933401;29;20047;-65
2022/04/04 01:29:28;;;;;;;0.80;0.47;;;;;;;23.83;48.78;99638.47;4932919;29;20036;-65
2022/04/04 01:31:54;;;;;;;0.55;0.30;;;;;;;23.85;48.48;99635.47;4933177;29;20038;-64
2022/04/04 01:34:21;;;;;;;0.50;0.20;;;;;;;23.87;48.86;99633.34;4933088;29;20070;-65
2022/04/04 01:36:48;;;;;;;2.13;0.20;;;;;;;23.85;48.44;99624.50;4933186;29;20071;-65
2022/04/04 01:39:13;;;;;;;1.02;0.20;;;;;;;23.85;49.53;99616.25;4917158;29;20122;-65
2022/04/04 01:41:39;;;;;;;2.15;0.15;;;;;;;23.85;49.24;99599.78;4933010;29;20134;-64
2022/04/04 01:44:04;;;;;;;0.30;0.10;;;;;;;23.87;48.49;99605.91;4933076;29;20035;-66
2022/04/04 01:46:29;;;;;;;0.95;0.65;;;;;;;23.87;48.99;99605.91;4932835;29;20376;-64
2022/04/04 01:49:01;;;;;;;0.63;0.28;;;;;;;23.86;49.52;99594.09;4981925;28;20128;-64
2022/04/04 01:51:27;;;;;;;0.20;0.17;;;;;;;23.87;48.89;99589.44;5012683;28;20025;-65
2022/04/04 01:53:53;;;;;;;1.00;0.17;;;;;;;23.86;48.40;99585.88;5012762;28;20488;-65
2022/04/04 01:56:18;;;;;;;0.57;0.22;;;;;;;23.85;49.01;99575.09;5012700;28;20030;-64
2022/04/04 01:58:44;;;;;;;0.85;0.17;;;;;;;23.87;48.26;99575.72;5011445;28;20373;-65
2022/04/04 02:01:13;;;;;;;0.20;0.20;;;;;;;23.88;48.15;99558.19;5012975;28;20053;-64
2022/04/04 02:03:38;;;;;;;0.10;0.10;;;;;;;23.91;49.26;99560.44;5012390;28;20026;-65
2022/04/04 02:06:04;;;;;;;0.40;0.20;;;;;;;23.90;48.54;99550.53;5012637;28;20041;-64
2022/04/04 02:08:31;;;;;;;0.68;0.10;;;;;;;23.87;48.68;99548.28;5012690;28;20033;-64
2022/04/04 02:10:57;;;;;;;0.60;0.10;;;;;;;23.87;48.74;99543.63;5012710;28;20108;-65
2022/04/04 02:13:25;;;;;;;0.35;0.35;;;;;;;23.91;49.10;99541.22;5012389;28;20101;-64
2022/04/04 02:15:52;;;;;;;1.13;0.30;;;;;;;23.90;48.97;99534.06;5012569;28;20105;-64
2022/04/04 02:18:18;;;;;;;1.27;0.30;;;;;;;23.91;48.73;99533.00;5012440;28;20029;-64
2022/04/04 02:20:43;;;;;;;0.57;0.00;;;;;;;23.89;49.24;99522.25;5012548;28;20362;-65
2022/04/04 02:23:09;;;;;;;0.15;0.10;;;;;;;23.91;48.99;99525.59;5012457;28;20029;-64
2022/04/04 02:25:34;;;;;;;0.47;0.13;;;;;;;23.88;49.31;99520.59;5012597;28;20026;-64
2022/04/04 02:27:59;;;;;;;0.65;0.15;;;;;;;23.87;48.83;99507.94;5016436;28;20485;-64
2022/04/04 02:30:25;;;;;;;0.40;0.20;;;;;;;23.86;49.54;99511.78;5016183;28;20021;-65
2022/04/04 02:32:50;;;;;;;0.13;0.05;;;;;;;23.90;49.79;99501.97;5016422;28;20025;-64
2022/04/04 02:35:16;;;;;;;0.50;0.10;;;;;;;23.91;48.94;99502.81;5016208;28;20025;-63
2022/04/04 02:37:43;;;;;;;0.20;0.10;;;;;;;23.90;48.07;99487.41;5016262;28;20018;-64
2022/04/04 02:40:09;;;;;;;0.90;0.20;;;;;;;23.93;48.72;99484.19;5016137;28;20474;-64
2022/04/04 02:42:34;;;;;;;0.38;0.10;;;;;;;23.92;49.24;99477.88;5016390;28;20137;-64
2022/04/04 02:45:00;;;;;;;0.60;0.10;;;;;;;23.92;48.37;99477.03;5016120;28;20112;-65
2022/04/04 02:47:25;;;;;;;1.45;0.20;;;;;;;23.92;48.63;99471.53;5015948;28;20466;-64
2022/04/04 02:49:50;;;;;;;0.38;0.10;;;;;;;23.93;49.57;99467.72;5016018;28;20026;-64
2022/04/04 02:52:15;;;;;;;0.20;0.10;;;;;;;23.91;49.22;99464.38;5015924;28;20025;-64
2022/04/04 02:54:41;;;;;;;0.17;0.10;;;;;;;23.89;48.13;99453.66;5015957;28;20014;-64
2022/04/04 02:57:06;;;;;;;0.25;0.20;;;;;;;23.91;48.76;99447.91;5015983;28;20026;-64
2022/04/04 02:59:31;;;;;;;1.73;0.50;;;;;;;23.95;47.88;99449.09;5016229;28;20022;-65
2022/04/04 03:01:57;;;;;;;0.30;0.10;;;;;;;23.91;49.36;99437.78;5015850;28;20088;-65
2022/04/04 03:04:22;;;;;;;0.30;0.10;;;;;;;23.89;48.63;99433.59;5015417;28;20497;-64
2022/04/04 03:06:48;;;;;;;0.85;0.25;;;;;;;23.91;49.32;99395.78;5015674;28;20022;-64
2022/04/04 03:09:13;;;;;;;0.40;0.30;;;;;;;23.96;49.08;99461.75;5015679;28;20461;-64
2022/04/04 03:11:38;;;;;;;0.55;0.13;;;;;;;23.91;49.09;99458.91;5015568;28;20064;-64
2022/04/04 03:14:05;;;;;;;0.60;0.30;;;;;;;23.92;49.31;99450.41;5015548;28;20053;-64
2022/04/04 03:16:31;;;;;;;0.73;0.28;;;;;;;23.91;48.47;99447.91;5015310;28;20452;-64
2022/04/04 03:18:57;;;;;;;0.85;0.20;;;;;;;23.93;48.10;99440.28;5015621;28;20100;-64
2022/04/04 03:21:23;;;;;;;0.85;0.10;;;;;;;23.90;49.70;99424.28;5015333;28;20088;-64
2022/04/04 03:23:48;;;;;;;0.38;0.10;;;;;;;23.87;48.85;99387.19;5015377;28;20470;-65
2022/04/04 03:26:14;;;;;;;0.93;0.47;;;;;;;23.88;49.38;99383.38;5015188;28;20033;-65
2022/04/04 03:28:40;;;;;;;2.38;0.30;;;;;;;23.88;48.54;99382.53;5015314;28;20040;-65
2022/04/04 03:31:06;;;;;;;0.30;0.15;;;;;;;23.87;48.35;99372.66;5015334;28;20026;-65
2022/04/04 03:33:33;;;;;;;0.15;0.15;;;;;;;23.86;48.49;99352.59;5015345;28;20415;-65
2022/04/04 03:35:58;;;;;;;0.52;0.13;;;;;;;23.84;48.44;99345.66;5015226;28;20021;-65
2022/04/04 03:38:24;;;;;;;0.60;0.30;;;;;;;23.83;47.86;99341.25;5014273;28;20036;-66
2022/04/04 03:40:50;;;;;;;1.88;0.30;;;;;;;23.81;49.34;99332.44;5015185;28;20032;-64
2022/04/04 03:43:15;;;;;;;0.68;0.13;;;;;;;23.80;48.60;99333.50;5014858;28;20462;-65
2022/04/04 03:45:41;;;;;;;0.43;0.10;;;;;;;23.79;47.94;99329.09;5015044;28;20022;-65
2022/04/04 03:48:07;;;;;;;0.25;0.17;;;;;;;23.85;47.58;99333.59;5014864;28;20029;-65
2022/04/04 03:50:32;;;;;;;0.55;0.13;;;;;;;23.79;49.30;99318.13;5014644;28;20034;-65
2022/04/04 03:52:58;;;;;;;0.93;0.20;;;;;;;23.82;48.47;99312.16;5015028;28;20049;-64
2022/04/04 03:55:30;;;;;;;0.30;0.10;;;;;;;23.81;48.16;99302.25;5014942;28;20493;-65
2022/04/04 03:57:56;;;;;;;0.40;0.13;;;;;;;23.83;48.57;99302.84;5014867;28;20026;-65
2022/04/04 04:00:24;;;;;;;0.30;0.10;;;;;;;23.77;48.40;99254.44;5014520;28;20066;-64
2022/04/04 04:02:50;;;;;;;2.75;0.40;;;;;;;23.90;46.55;99254.97;5014768;28;20025;-64
2022/04/04 04:05:16;;;;;;;0.95;0.30;;;;;;;24.01;47.23;99292.50;5014281;28;20478;-65
2022/04/04 04:07:42;;;;;;;4.00;0.68;;;;;;;24.09;48.66;99291.28;5014614;28;20037;-64
2022/04/04 04:10:11;;;;;;;1.40;0.32;;;;;;;24.14;48.56;99315.25;5014554;28;20048;-65
2022/04/04 04:12:38;;;;;;;3.40;0.75;;;;;;;24.21;47.50;99330.50;5014404;28;20061;-65
2022/04/04 04:15:04;;;;;;;1.10;0.80;;;;;;;24.26;47.18;99319.59;5014506;28;20020;-65
2022/04/04 04:17:30;;;;;;;2.00;0.85;;;;;;;24.29;47.44;99266.97;5014141;28;20470;-65
2022/04/04 04:22:39;;;;;;;2.85;0.40;;;;;;;24.33;45.34;99263.72;5014293;28;20033;-65
2022/04/04 04:25:06;;;;;;;2.03;0.47;;;;;;;24.36;46.26;99257.75;5014230;28;20526;-65
2022/04/04 04:27:31;;;;;;;0.98;0.30;;;;;;;24.33;46.97;99247.25;5014006;28;20386;-65
2022/04/04 04:29:56;;;;;;;0.93;0.32;;;;;;;24.40;45.65;99242.44;5014102;28;20033;-65
2022/04/04 04:32:22;;;;;;;1.77;0.45;;;;;;;24.39;44.87;99238.03;5013920;28;20030;-64
2022/04/04 04:34:50;;;;;;;1.75;0.20;;;;;;;24.40;45.14;99236.94;5014135;28;20466;-65
2022/04/04 04:37:16;;;;;;;1.10;0.35;;;;;;;24.42;44.38;99229.28;5013868;28;20029;-64
2022/04/04 04:39:42;;;;;;;1.27;0.20;;;;;;;24.43;44.99;99222.69;5014035;28;20022;-65
2022/04/04 04:42:07;;;;;;;0.22;0.10;;;;;;;24.46;45.57;99220.28;5014238;28;20041;-64
2022/04/04 04:44:32;;;;;;;0.52;0.30;;;;;;;24.43;45.71;99219.97;5013754;28;20026;-65
2022/04/04 04:46:58;;;;;;;0.38;0.03;;;;;;;24.48;45.11;99207.13;5013918;28;20029;-64
2022/04/04 04:49:25;;;;;;;0.88;0.28;;;;;;;24.49;45.24;99213.44;5012690;28;20026;-65
2022/04/04 04:51:52;;;;;;;2.10;0.10;;;;;;;24.48;45.65;99195.31;5014035;28;20029;-65
2022/04/04 04:54:17;;;;;;;0.63;0.20;;;;;;;24.47;45.46;99188.16;5013628;28;20030;-65
2022/04/04 04:56:43;;;;;;;0.55;0.10;;;;;;;24.50;45.01;99188.47;5012458;28;20389;-65
2022/04/04 04:59:09;;;;;;;1.50;0.20;;;;;;;24.48;44.44;99174.16;5013723;28;20026;-65
2022/04/04 05:01:35;;;;;;;0.85;0.30;;;;;;;24.53;44.23;99176.19;5013530;28;20032;-65
2022/04/04 05:04:00;;;;;;;0.65;0.20;;;;;;;24.48;44.20;99176.09;5013269;28;20046;-65
2022/04/04 05:06:25;;;;;;;0.40;0.28;;;;;;;24.54;44.39;99173.19;5013409;28;20026;-65
2022/04/04 05:08:51;;;;;;;1.10;0.30;;;;;;;24.55;44.58;99168.50;5013557;28;20029;-65
2022/04/04 05:11:16;;;;;;;0.65;0.28;;;;;;;24.56;43.21;99153.69;5012057;28;20131;-64
2022/04/04 05:13:42;;;;;;;0.20;0.10;;;;;;;24.52;44.24;99145.13;5012118;28;20026;-65
2022/04/04 05:16:10;;;;;;;0.50;0.32;;;;;;;24.61;44.44;99131.78;5013624;28;20036;-65
2022/04/04 05:18:36;;;;;;;0.15;0.10;;;;;;;24.55;44.14;99132.81;5013528;28;20044;-65
2022/04/04 05:21:03;;;;;;;0.30;0.30;;;;;;;24.55;44.40;99125.41;5012022;28;20026;-65
2022/04/04 05:23:29;;;;;;;0.35;0.30;;;;;;;24.55;44.61;99119.06;5013008;28;20064;-65
2022/04/04 05:25:54;;;;;;;0.22;0.10;;;;;;;24.55;44.93;99113.56;5011900;28;20053;-66
2022/04/04 05:28:20;;;;;;;0.57;0.10;;;;;;;24.57;43.30;99109.50;5011772;28;20025;-65
2022/04/04 05:30:45;;;;;;;1.20;0.28;;;;;;;24.60;44.67;99110.88;5013028;28;20053;-65
2022/04/04 05:33:10;;;;;;;0.40;0.20;;;;;;;24.60;44.14;99094.41;5013073;28;20028;-64
2022/04/04 05:35:36;;;;;;;0.40;0.10;;;;;;;24.59;45.43;99093.56;5012935;28;20037;-65
2022/04/04 05:38:02;;;;;;;0.10;0.00;;;;;;;24.61;45.22;99085.06;5012994;28;20434;-65
2022/04/04 05:40:27;;;;;;;0.22;0.10;;;;;;;24.64;44.63;99084.56;5012757;28;20116;-64
2022/04/04 05:42:54;;;;;;;0.38;0.10;;;;;;;24.63;44.54;99071.91;5013081;28;20029;-65
2022/04/04 05:45:20;;;;;;;0.20;0.10;;;;;;;24.64;44.74;99073.56;5012700;28;20033;-65
2022/04/04 05:47:45;;;;;;;0.98;0.40;;;;;;;24.69;44.14;99073.66;5012767;28;20034;-65
2022/04/04 05:50:11;;;;;;;0.52;0.10;;;;;;;24.68;44.54;99065.66;5012708;28;20091;-65
2022/04/04 05:52:37;;;;;;;0.30;0.10;;;;;;;24.65;44.77;99074.41;5012763;28;20032;-65
2022/04/04 05:55:04;;;;;;;0.30;0.10;;;;;;;24.65;44.81;99069.75;5012911;28;20473;-65
2022/04/04 05:57:32;;;;;;;0.17;0.08;;;;;;;24.66;44.32;99054.09;5012566;28;20104;-64
2022/04/04 05:59:57;;;;;;;0.32;0.10;;;;;;;24.67;44.36;99056.56;5012736;28;20026;-64
2022/04/04 06:02:24;;;;;;;0.45;0.20;;;;;;;24.69;44.10;99048.94;5012234;28;20385;-65
2022/04/04 06:04:50;;;;;;;0.65;0.10;;;;;;;24.67;44.91;99051.06;5011208;28;20405;-65
2022/04/04 06:07:15;;;;;;;0.30;0.05;;;;;;;24.69;43.61;99048.94;5012571;28;20026;-65
2022/04/04 06:09:41;;;;;;;0.40;0.20;;;;;;;24.70;44.63;99039.59;5012616;28;20018;-64
2022/04/04 06:12:08;;;;;;;0.38;0.20;;;;;;;24.67;44.23;99036.50;5011273;28;20105;-65
2022/04/04 06:14:34;;;;;;;0.20;0.10;;;;;;;24.71;45.73;99030.28;5011100;28;20405;-64
2022/04/04 06:16:59;;;;;;;0.93;0.20;;;;;;;24.68;45.47;99029.94;5012686;28;20469;-64
2022/04/04 06:19:27;;;;;;;0.10;0.10;;;;;;;24.67;44.88;99029.09;5012413;28;20116;-65
2022/04/04 06:21:52;;;;;;;0.57;0.10;;;;;;;24.68;44.42;99024.44;5012431;28;20022;-65
2022/04/04 06:24:17;;;;;;;0.98;0.08;;;;;;;24.70;45.23;99023.13;5012305;28;20022;-65
2022/04/04 06:26:43;;;;;;;0.43;0.10;;;;;;;24.73;44.38;99016.28;5012485;28;20446;-65
2022/04/04 06:29:09;;;;;;;0.60;0.13;;;;;;;24.72;44.94;99011.88;5012419;28;20033;-64
2022/04/04 06:31:38;;;;;;;1.27;0.20;;;;;;;24.69;44.35;99010.47;5012327;28;20053;-64
2022/04/04 06:34:08;;;;;;;0.00;0.00;;;;;;;24.71;44.44;99005.53;5012375;28;20026;-64
2022/04/04 06:36:33;;;;;;;0.43;0.20;;;;;;;24.70;45.09;99006.63;5012159;28;20029;-65
2022/04/04 06:38:59;;;;;;;1.83;0.15;;;;;;;24.71;44.91;99002.78;5012470;28;20022;-64
2022/04/04 06:41:25;;;;;;;0.50;0.10;;;;;;;24.73;44.59;98995.13;5012241;28;20481;-65
2022/04/04 06:43:51;;;;;;;2.92;0.63;;;;;;;24.71;43.19;99002.78;5012225;28;20029;-65
2022/04/04 06:46:17;;;;;;;0.28;0.00;;;;;;;24.74;45.13;98998.69;5012223;28;20026;-65
2022/04/04 06:48:42;;;;;;;0.98;0.10;;;;;;;24.72;44.46;98996.22;5012306;28;20112;-64
2022/04/04 06:51:09;;;;;;;1.25;0.13;;;;;;;24.69;44.62;98983.00;5012600;28;20026;-65
2022/04/04 06:53:34;;;;;;;0.38;0.10;;;;;;;24.71;43.48;98980.00;5012142;28;20017;-64
2022/04/04 06:55:59;;;;;;;0.50;0.10;;;;;;;24.75;45.62;98976.47;5012238;28;20099;-65
2022/04/04 06:58:26;;;;;;;0.10;0.10;;;;;;;24.73;44.96;98973.13;5012067;28;20021;-65
2022/04/04 07:00:52;;;;;;;0.60;0.05;;;;;;;24.73;45.02;98962.16;5012250;28;20425;-64
2022/04/04 07:03:17;;;;;;;0.17;0.10;;;;;;;24.71;44.94;98961.59;5011952;28;20029;-65
2022/04/04 07:05:42;;;;;;;0.30;0.30;;;;;;;24.74;44.90;98961.06;5011943;28;20049;-65
2022/04/04 07:08:08;;;;;;;0.45;0.15;;;;;;;24.73;43.47;98955.81;5010763;28;20730;-64
2022/04/04 07:10:33;;;;;;;0.28;0.20;;;;;;;24.73;43.92;98951.16;5011952;28;20022;-64
2022/04/04 07:12:59;;;;;;;0.50;0.30;;;;;;;24.75;44.93;98948.97;5012944;28;20469;-65
2022/04/04 07:15:25;;;;;;;0.17;0.17;;;;;;;24.74;46.04;98947.31;5015502;28;20025;-65
2022/04/04 07:17:50;;;;;;;0.65;0.30;;;;;;;24.74;44.66;98947.31;5015628;28;20056;-65
2022/04/04 07:20:15;;;;;;;0.65;0.20;;;;;;;24.75;44.78;98940.75;5015420;28;20469;-64
2022/04/04 07:22:42;;;;;;;0.73;0.10;;;;;;;24.79;45.14;98939.13;5015425;28;20462;-64
2022/04/04 07:25:09;;;;;;;0.28;0.10;;;;;;;24.76;44.47;98927.81;5015386;28;20026;-64
2022/04/04 07:27:37;;;;;;;0.63;0.32;;;;;;;24.73;44.68;98929.19;5015284;28;20516;-64
2022/04/04 07:30:03;;;;;;;0.30;0.13;;;;;;;24.75;45.54;98926.16;5013989;28;20026;-64
2022/04/04 07:32:28;;;;;;;0.63;0.30;;;;;;;24.79;45.01;98922.63;5013868;28;20028;-65
2022/04/04 07:34:54;;;;;;;3.15;0.63;;;;;;;24.76;45.08;98916.84;5015390;28;20022;-64
2022/04/04 07:37:19;;;;;;;0.10;0.10;;;;;;;24.78;43.93;98918.22;5015007;28;20144;-65
2022/04/04 07:39:44;;;;;;;0.32;0.17;;;;;;;24.79;44.77;98914.41;5015157;28;20049;-65
2022/04/04 07:42:10;;;;;;;0.47;0.10;;;;;;;24.76;44.22;98909.44;5015078;28;20071;-65
2022/04/04 07:44:35;;;;;;;0.10;0.00;;;;;;;24.78;44.88;98901.75;5014915;28;20032;-65
2022/04/04 07:47:00;;;;;;;0.32;0.10;;;;;;;24.79;44.96;98906.16;5015090;28;20377;-64
2022/04/04 07:49:26;;;;;;;0.82;0.20;;;;;;;24.75;43.49;98898.69;5014736;28;20108;-65
2022/04/04 07:51:51;;;;;;;0.35;0.10;;;;;;;24.75;45.58;98893.19;5014928;28;20469;-64
2022/04/04 07:54:17;;;;;;;0.40;0.20;;;;;;;24.78;44.12;98888.00;5014755;28;20021;-65
2022/04/04 07:56:43;;;;;;;0.10;0.10;;;;;;;24.81;45.09;98886.66;5014864;28;20101;-65
2022/04/04 07:59:09;;;;;;;0.30;0.10;;;;;;;24.79;44.46;98883.34;5014865;28;20105;-64
2022/04/04 08:01:34;;;;;;;0.38;0.20;;;;;;;24.76;44.24;98886.63;5014572;28;20025;-64
2022/04/04 08:04:00;;;;;;;0.52;0.10;;;;;;;24.81;44.30;98881.97;5014512;28;20401;-64
2022/04/04 08:06:26;;;;;;;0.22;0.10;;;;;;;24.79;45.08;98872.34;5014438;28;20033;-64
2022/04/04 08:08:51;;;;;;;0.40;0.10;;;;;;;24.79;44.49;98867.69;5014679;28;20022;-65
2022/04/04 08:11:16;;;;;;;1.05;0.10;;;;;;;24.81;44.59;98864.66;5014461;28;20022;-64
2022/04/04 08:13:44;;;;;;;0.73;0.20;;;;;;;24.80;44.79;98861.09;5014521;28;20026;-65
2022/04/04 08:16:10;;;;;;;0.20;0.20;;;;;;;24.79;44.75;98856.69;5014398;28;20060;-65
2022/04/04 08:18:35;;;;;;;0.10;0.00;;;;;;;24.83;45.46;98854.25;5014392;28;20054;-65
2022/04/04 08:21:00;;;;;;;0.40;0.15;;;;;;;24.82;44.81;98850.66;5014435;28;20500;-65
2022/04/04 08:23:29;;;;;;;0.08;0.08;;;;;;;24.80;45.65;98847.34;5013821;28;20025;-65
2022/04/04 08:25:59;;;;;;;2.17;0.25;;;;;;;24.74;44.60;98842.91;5014344;28;20022;-64
2022/04/04 08:28:25;;;;;;;0.75;0.10;;;;;;;24.81;45.11;98832.53;5014050;28;20030;-64
2022/04/04 08:30:50;;;;;;;0.10;0.03;;;;;;;24.83;44.89;98838.59;5014304;28;20037;-65
2022/04/04 08:33:17;;;;;;;2.17;0.10;;;;;;;24.86;44.22;98834.50;5014068;28;20029;-64
2022/04/04 08:35:43;;;;;;;1.45;0.20;;;;;;;24.82;45.23;98834.19;5014149;28;20032;-64
2022/04/04 08:38:08;;;;;;;0.47;0.25;;;;;;;24.81;44.87;98824.28;5013960;28;20032;-64
2022/04/04 08:40:35;;;;;;;0.50;0.20;;;;;;;24.79;44.58;98825.63;5013977;28;20022;-65
2022/04/04 08:43:03;;;;;;;0.65;0.30;;;;;;;24.83;44.79;98819.34;5014044;28;20021;-65
2022/04/04 08:45:28;;;;;;;0.05;0.00;;;;;;;24.85;44.77;98811.66;5013831;28;20041;-64
2022/04/04 08:47:55;;;;;;;0.00;0.00;;;;;;;24.83;44.81;98813.84;5013892;28;20465;-65
2022/04/04 08:50:21;;;;;;;0.20;0.20;;;;;;;24.83;44.54;98811.09;5013644;28;20497;-64
2022/04/04 08:52:47;;;;;;;0.75;0.20;;;;;;;24.86;44.80;98807.84;5013785;28;20025;-65
2022/04/04 08:55:15;;;;;;;0.30;0.25;;;;;;;24.83;44.23;98811.09;5013686;28;20022;-64
2022/04/04 08:57:41;;;;;;;0.10;0.10;;;;;;;24.86;45.01;98799.59;5013796;28;20105;-64
2022/04/04 09:00:10;;;;;;;0.80;0.13;;;;;;;24.88;45.21;98811.16;5013574;28;20026;-65
2022/04/04 09:02:36;;;;;;;0.52;0.10;;;;;;;24.89;45.35;98792.75;5013597;28;20018;-64
2022/04/04 09:05:05;;;;;;;0.50;0.10;;;;;;;24.87;44.74;98794.94;5013404;28;20053;-64
2022/04/04 09:07:30;;;;;;;0.38;0.25;;;;;;;24.86;44.56;98791.38;5012055;28;20472;-65
2022/04/04 09:09:56;;;;;;;0.40;0.28;;;;;;;24.84;45.08;98788.03;5013526;28;20076;-65
2022/04/04 09:12:24;;;;;;;0.75;0.10;;;;;;;24.87;44.84;98781.19;5013256;28;20036;-65
2022/04/04 09:14:58;;;;;;;0.45;0.20;;;;;;;24.84;45.44;98771.53;5012417;28;20068;-64
2022/04/04 09:17:29;;;;;;;0.85;0.10;;;;;;;24.87;43.84;98768.28;5013187;28;20112;-64
2022/04/04 09:19:55;;;;;;;2.03;0.30;;;;;;;24.86;45.07;98769.38;5013315;28;20092;-65
2022/04/04 09:22:21;;;;;;;0.77;0.20;;;;;;;24.88;45.40;98758.94;5013158;28;20057;-64
2022/04/04 09:24:55;;;;;;;0.47;0.10;;;;;;;24.87;44.73;98749.06;5013232;28;20104;-65
2022/04/04 09:27:29;;;;;;;0.57;0.15;;;;;;;24.87;44.45;98751.81;5013015;28;20026;-64
2022/04/04 09:29:57;;;;;;;0.75;0.10;;;;;;;24.87;43.91;98746.31;5013111;28;20049;-64
2022/04/04 09:32:38;;;;;;;1.85;0.10;;;;;;;24.86;44.28;98738.31;5012282;28;20037;-64
2022/04/04 09:35:10;;;;;;;0.13;0.10;;;;;;;24.87;45.20;98729.81;5013305;28;20057;-64
2022/04/04 09:37:38;;;;;;;0.32;0.10;;;;;;;24.86;44.33;98719.09;5012941;28;20022;-64
2022/04/04 09:40:24;;;;;;;0.13;0.13;;;;;;;24.86;44.98;98719.91;5013016;28;20092;-64
2022/04/04 09:42:50;;;;;;;0.95;0.20;;;;;;;24.88;44.88;98712.22;5011743;28;20099;-65
2022/04/04 09:45:16;;;;;;;0.38;0.30;;;;;;;24.88;45.00;98712.22;5011507;28;20069;-64
2022/04/04 09:47:45;;;;;;;0.40;0.20;;;;;;;24.90;44.92;98714.72;5012277;28;20053;-64
2022/04/04 09:50:27;;;;;;;0.32;0.20;;;;;;;24.92;45.23;98706.19;5003440;28;20036;-64
2022/04/04 09:52:52;;;;;;;0.43;0.10;;;;;;;24.91;45.49;98702.63;5006570;28;20108;-65
2022/04/04 09:55:34;;;;;;;0.20;0.13;;;;;;;24.88;45.32;98695.75;5012021;28;20174;-64
2022/04/04 09:58:02;;;;;;;0.80;0.20;;;;;;;24.89;44.94;98683.66;5011290;28;20049;-65
2022/04/04 10:00:28;;;;;;;1.60;0.47;;;;;;;24.88;44.60;98678.44;4993986;28;20069;-65
2022/04/04 10:02:55;;;;;;;0.90;0.30;;;;;;;24.86;44.06;98667.72;4991239;28;20030;-64
2022/04/04 10:05:23;;;;;;;0.17;0.10;;;;;;;24.92;45.14;98667.72;4991958;28;20050;-64
2022/04/04 10:07:52;;;;;;;0.17;0.08;;;;;;;24.87;44.24;98669.34;4992374;28;20493;-65
2022/04/04 10:10:17;;;;;;;1.73;0.10;;;;;;;24.89;44.65;98653.44;4993793;28;20048;-65
2022/04/04 10:12:44;;;;;;;0.22;0.10;;;;;;;24.90;44.56;98657.84;4992640;28;20026;-64
2022/04/04 10:15:10;;;;;;;0.70;0.10;;;;;;;24.92;44.35;98645.75;5010980;28;20025;-65
2022/04/04 10:17:37;;;;;;;0.28;0.00;;;;;;;24.89;44.78;98650.69;4994945;28;20453;-64
2022/04/04 10:20:02;;;;;;;1.15;0.10;;;;;;;24.86;44.00;98642.97;5012144;28;20040;-65
2022/04/04 10:22:29;;;;;;;2.10;0.20;;;;;;;24.90;44.81;98633.09;5011739;28;20037;-64
2022/04/04 10:24:58;;;;;;;0.28;0.10;;;;;;;24.89;44.92;98628.69;5011216;28;20033;-65
2022/04/04 10:27:24;;;;;;;0.03;0.00;;;;;;;24.89;44.88;98627.88;5011081;28;20030;-65
2022/04/04 10:30:01;;;;;;;0.00;0.00;;;;;;;24.89;44.00;98625.94;5010222;28;20064;-64
2022/04/04 10:32:28;;;;;;;0.17;0.10;;;;;;;24.90;44.08;98624.03;5000409;28;20029;-65
2022/04/04 10:34:55;;;;;;;1.90;0.20;;;;;;;24.87;43.40;98611.66;5012260;28;20018;-64
2022/04/04 10:37:26;;;;;;;1.17;0.10;;;;;;;24.93;45.17;98608.91;5011573;28;20031;-64
2022/04/04 10:39:51;;;;;;;0.85;0.10;;;;;;;24.89;44.65;98609.47;5012100;28;20064;-64
2022/04/04 10:42:36;;;;;;;0.77;0.20;;;;;;;24.93;45.02;98597.94;5013967;28;20451;-65
2022/04/04 10:45:09;;;;;;;0.57;0.20;;;;;;;24.92;43.91;98591.59;5008905;28;20077;-65
2022/04/04 10:47:38;;;;;;;0.38;0.20;;;;;;;24.92;44.72;98593.53;5012091;28;20028;-64
2022/04/04 10:50:23;;;;;;;0.10;0.00;;;;;;;24.93;45.35;98586.94;5015947;28;20025;-65
2022/04/04 10:52:50;;;;;;;0.30;0.10;;;;;;;24.94;44.67;98572.09;5014857;28;20060;-65
2022/04/04 10:55:34;;;;;;;0.17;0.10;;;;;;;24.88;44.87;98566.59;5018726;28;20071;-65
2022/04/04 10:58:09;;;;;;;0.20;0.20;;;;;;;24.89;43.91;98559.16;5003133;28;20104;-66
2022/04/04 11:01:03;;;;;;;0.40;0.10;;;;;;;24.95;44.25;98557.25;5011192;28;20633;-65
2022/04/04 11:03:40;;;;;;;0.55;0.20;;;;;;;24.90;43.97;98550.66;5015219;28;20049;-64
2022/04/04 11:09:19;;;;;;;0.50;0.10;;;;;;;24.95;45.99;98529.78;5015482;28;20041;-64
2022/04/04 11:11:52;;;;;;;0.00;0.00;;;;;;;24.93;44.22;98535.53;5007828;28;20042;-65
2022/04/04 11:14:26;;;;;;;0.10;0.10;;;;;;;24.94;44.78;98533.63;5015023;28;20025;-64
2022/04/04 11:17:06;;;;;;;1.35;0.13;;;;;;;24.93;45.29;98518.22;5012160;28;20025;-64
2022/04/04 11:19:48;;;;;;;0.10;0.10;;;;;;;24.96;45.81;98512.19;5015106;28;20181;-65
2022/04/04 11:22:14;;;;;;;0.10;0.10;;;;;;;24.95;44.34;98507.78;5014748;28;20034;-65
2022/04/04 11:24:40;;;;;;;0.85;0.13;;;;;;;24.94;44.41;98500.66;5011264;28;20025;-65
2022/04/04 11:27:07;;;;;;;0.45;0.10;;;;;;;24.94;44.80;98489.66;5013159;28;20541;-64
2022/04/04 11:29:35;;;;;;;1.55;0.25;;;;;;;24.84;43.14;98513.25;5013291;28;20128;-64
2022/04/04 11:32:01;;;;;;;0.20;0.10;;;;;;;24.79;43.93;98499.50;5014139;28;20030;-64
2022/04/04 11:34:29;;;;;;;0.30;0.10;;;;;;;24.78;43.08;98506.09;5013651;28;20021;-64
2022/04/04 11:36:54;;;;;;;0.28;0.10;;;;;;;24.78;41.78;98486.84;5014936;28;20497;-64
2022/04/04 11:39:20;;;;;;;1.23;0.15;;;;;;;24.87;44.27;98467.94;5014678;28;20030;-64